»·PEaware :: N13686 KCOS-KDEN

N13686 :: KCOS-KDEN

FLIGHT INFORMATION

Flight Status: Arrived
Operator: Privately registered:
United States
More flights under this callsign
Pilot: Hootan S. (33886)
Aircraft: CESSNA 172 SKYHAWK
(C172)
More flights by this aircraft type
Origin: KCOS City Of Colorado Springs Mun
United States
Destination: KDEN Denver Intl
United States
More flights between these airports :: More routes between these airports
Route: COS6 ADANE V389 LUFSE JEFEL
File this flight plan on PilotEdge
Remarks:
Altitude:
(Current/Filed)
10,000ft
Speed:
(Current/Filed)
110kts
Departed: 28-Jun-21 09:15 PM
Arrived: 28-Jun-21 10:06 PM
Distance/Time
Traveled:
62nm/0:51
Distance/Time
To Go:
Arrived

Flight Plot

Page will automatically refresh every two minutes.

Flight plan parsing failed; only flown route is shown


Map Options




Map Legend


Flown Route
Filed Route
Departure Airport
Arrival Airport
Navaid (VOR, NDB)
Fix

Horizontal Profiles

Position Reports

Time Latitude Longitude Heading Altitude Ground
Speed
28-Jun-21 20:50 38.808190 -104.720447 359 6088ft 0kts
28-Jun-21 20:51 38.808190 -104.720447 359 6088ft 0kts
28-Jun-21 20:52 38.808190 -104.720447 359 6088ft 0kts
28-Jun-21 20:53 38.808190 -104.720447 359 6088ft 0kts
28-Jun-21 20:54 38.808190 -104.720447 359 6088ft 0kts
28-Jun-21 20:55 38.808190 -104.720447 359 6088ft 0kts
28-Jun-21 20:56 38.808190 -104.720447 359 6088ft 0kts
28-Jun-21 20:57 38.808190 -104.720447 359 6088ft 0kts
28-Jun-21 20:58 38.808190 -104.720447 359 6088ft 0kts
28-Jun-21 20:59 38.808190 -104.720447 359 6088ft 0kts
28-Jun-21 21:00 38.808190 -104.720447 359 6088ft 0kts
28-Jun-21 21:01 38.808190 -104.720447 359 6088ft 0kts
28-Jun-21 21:02 38.808190 -104.720447 359 6088ft 0kts
28-Jun-21 21:03 38.808190 -104.720447 359 6088ft 0kts
28-Jun-21 21:04 38.808190 -104.720447 359 6088ft 0kts
28-Jun-21 21:05 38.808190 -104.720447 359 6088ft 0kts
28-Jun-21 21:06 38.806752 -104.719596 181 6084ft 13kts
28-Jun-21 21:07 38.804311 -104.717356 183 6082ft 14kts
28-Jun-21 21:08 38.803658 -104.712100 89 6087ft 25kts
28-Jun-21 21:09 38.803639 -104.705587 83 6099ft 8kts
28-Jun-21 21:10 38.803634 -104.700839 84 6113ft 8kts
28-Jun-21 21:11 38.805312 -104.697145 21 6128ft 14kts
28-Jun-21 21:12 38.806402 -104.696001 45 6135ft 0kts
28-Jun-21 21:13 38.806533 -104.695859 33 6136ft 10kts
28-Jun-21 21:14 38.816215 -104.706788 314 6278ft 87kts
28-Jun-21 21:15 38.836625 -104.725854 16 7008ft 89kts
28-Jun-21 21:16 38.852664 -104.697697 54 7768ft 89kts
28-Jun-21 21:17 38.867442 -104.667456 54 8482ft 88kts
28-Jun-21 21:18 38.881589 -104.636767 63 9140ft 89kts
28-Jun-21 21:19 38.890043 -104.602263 74 9751ft 91kts
28-Jun-21 21:20 38.895558 -104.563913 76 10046ft 115kts
28-Jun-21 21:21 38.901894 -104.515806 77 10042ft 125kts
28-Jun-21 21:22 38.908333 -104.466163 77 10042ft 127kts
28-Jun-21 21:23 38.914848 -104.416202 73 10040ft 127kts
28-Jun-21 21:24 38.948990 -104.400742 4 10023ft 125kts
28-Jun-21 21:25 38.987704 -104.397525 1 10025ft 126kts
28-Jun-21 21:26 39.027129 -104.395047 5 10025ft 128kts
28-Jun-21 21:27 39.066119 -104.390551 1 10025ft 128kts
28-Jun-21 21:28 39.107156 -104.388069 0 10026ft 128kts
28-Jun-21 21:29 39.148757 -104.386001 0 10026ft 129kts
28-Jun-21 21:30 39.189810 -104.384032 0 10026ft 129kts
28-Jun-21 21:31 39.228120 -104.367659 31 10024ft 130kts
28-Jun-21 21:32 39.262875 -104.336345 34 10016ft 130kts
28-Jun-21 21:33 39.297237 -104.304394 34 10003ft 130kts
28-Jun-21 21:34 39.330970 -104.272832 34 9984ft 130kts
28-Jun-21 21:35 39.366706 -104.253994 333 9964ft 128kts
28-Jun-21 21:36 39.399213 -104.284210 320 9966ft 128kts
28-Jun-21 21:37 39.428656 -104.316908 319 9966ft 112kts
28-Jun-21 21:38 39.454588 -104.346863 318 9965ft 107kts
28-Jun-21 21:39 39.479864 -104.376423 318 9960ft 107kts
28-Jun-21 21:40 39.505077 -104.405646 318 9952ft 107kts
28-Jun-21 21:41 39.529693 -104.434186 318 9977ft 105kts
28-Jun-21 21:42 39.555039 -104.463611 318 9976ft 112kts
28-Jun-21 21:43 39.581983 -104.494903 318 9975ft 116kts
28-Jun-21 21:44 39.608805 -104.526091 318 9996ft 115kts
28-Jun-21 21:45 39.634924 -104.556493 318 9993ft 116kts
28-Jun-21 21:46 39.666783 -104.566711 7 9993ft 117kts
28-Jun-21 21:47 39.702062 -104.560032 7 9991ft 117kts
28-Jun-21 21:48 39.737175 -104.553526 7 9987ft 117kts
28-Jun-21 21:49 39.772873 -104.547078 7 9983ft 118kts
28-Jun-21 21:50 39.809345 -104.540678 7 9979ft 118kts
28-Jun-21 21:51 39.845969 -104.534422 7 9975ft 118kts
28-Jun-21 21:52 39.882476 -104.528324 6 9975ft 118kts
28-Jun-21 21:53 39.919209 -104.522310 6 9693ft 133kts
28-Jun-21 21:54 39.957301 -104.516241 6 9166ft 130kts
28-Jun-21 21:55 39.997311 -104.510052 6 8309ft 140kts
28-Jun-21 21:56 40.031390 -104.522497 282 7701ft 130kts
28-Jun-21 21:57 40.036802 -104.572844 278 7160ft 129kts
28-Jun-21 21:58 40.041486 -104.619435 278 6964ft 113kts
28-Jun-21 21:59 40.037818 -104.659104 201 6965ft 108kts
28-Jun-21 22:00 40.003582 -104.658089 179 6969ft 107kts
28-Jun-21 22:01 39.967902 -104.658522 180 6970ft 115kts
28-Jun-21 22:02 39.930811 -104.659006 180 6893ft 113kts
28-Jun-21 22:03 39.897625 -104.659339 180 6287ft 95kts
28-Jun-21 22:04 39.873151 -104.659927 179 5746ft 71kts
28-Jun-21 22:05 39.853461 -104.660280 179 5438ft 37kts
28-Jun-21 22:06 39.844320 -104.660324 182 5438ft 30kts
28-Jun-21 22:07 39.840556 -104.661671 220 5438ft 0kts
28-Jun-21 22:08 39.839723 -104.664454 255 5438ft 10kts

Navigation Log

Ident Type
Flight plan parsing failed, navigation log unavailable